createdAt,value
2022-10-21T00:01:33.149Z,13.68
2022-10-21T00:04:02.224Z,13.64
2022-10-21T00:06:29.114Z,13.65
2022-10-21T00:08:56.156Z,13.66
2022-10-21T00:11:46.582Z,13.74
2022-10-21T00:14:13.105Z,13.81
2022-10-21T00:16:39.785Z,13.77
2022-10-21T00:19:06.322Z,13.75
2022-10-21T00:21:33.414Z,13.73
2022-10-21T00:24:00.099Z,13.72
2022-10-21T00:26:26.663Z,13.65
2022-10-21T00:28:57.409Z,13.84
2022-10-21T00:31:24.956Z,13.85
2022-10-21T00:33:51.657Z,13.79
2022-10-21T00:36:18.758Z,13.70
2022-10-21T00:38:48.419Z,13.74
2022-10-21T00:41:17.658Z,13.70
2022-10-21T00:44:06.485Z,13.69
2022-10-21T00:46:57.954Z,13.90
2022-10-21T00:49:44.919Z,13.75
2022-10-21T00:52:22.034Z,13.63
2022-10-21T00:54:55.476Z,13.58
2022-10-21T00:57:23.635Z,13.60
2022-10-21T00:59:57.753Z,13.44
2022-10-21T01:02:24.483Z,13.39
2022-10-21T01:04:53.782Z,13.36
2022-10-21T01:07:20.583Z,13.17
2022-10-21T01:09:47.146Z,13.43
2022-10-21T01:12:51.919Z,13.61
2022-10-21T01:15:25.874Z,13.71
2022-10-21T01:18:06.413Z,13.70
2022-10-21T01:20:44.834Z,13.84
2022-10-21T01:23:26.817Z,13.94
2022-10-21T01:25:59.838Z,13.79
2022-10-21T01:28:45.368Z,13.78
2022-10-21T01:31:27.779Z,13.78
2022-10-21T01:34:12.157Z,13.74
2022-10-21T01:36:55.500Z,13.76
2022-10-21T01:39:29.023Z,13.86
2022-10-21T01:42:03.648Z,13.97
2022-10-21T01:44:40.890Z,13.97
2022-10-21T01:47:16.588Z,14.06
2022-10-21T01:49:51.639Z,14.08
2022-10-21T01:52:18.562Z,13.97
2022-10-21T01:54:50.253Z,13.93
2022-10-21T01:57:20.945Z,13.90
2022-10-21T01:59:48.185Z,13.82
2022-10-21T02:02:16.185Z,13.96
2022-10-21T02:04:45.914Z,13.99
2022-10-21T02:07:12.504Z,13.87
2022-10-21T02:09:39.075Z,13.99
2022-10-21T02:12:07.583Z,14.07
2022-10-21T02:14:42.186Z,13.98
2022-10-21T02:17:12.893Z,14.08
2022-10-21T02:19:39.832Z,14.14
2022-10-21T02:22:09.701Z,14.20
2022-10-21T02:24:44.395Z,14.12
2022-10-21T02:27:11.332Z,14.21
2022-10-21T02:29:40.747Z,14.11
2022-10-21T02:32:22.663Z,14.27
2022-10-21T02:34:55.488Z,14.42
2022-10-21T02:37:47.050Z,14.37
2022-10-21T02:40:19.990Z,14.21
2022-10-21T02:42:52.529Z,14.16
2022-10-21T02:45:19.320Z,14.15
2022-10-21T02:47:48.504Z,14.25
2022-10-21T02:50:15.435Z,14.16
2022-10-21T02:52:42.144Z,14.14
2022-10-21T02:55:09.171Z,14.13
2022-10-21T02:57:36.229Z,14.12
2022-10-21T03:00:05.384Z,14.01
2022-10-21T03:02:32.079Z,13.89
2022-10-21T03:04:58.987Z,13.90
2022-10-21T03:07:25.574Z,13.85
2022-10-21T03:09:52.117Z,13.82
2022-10-21T03:12:18.728Z,13.83
2022-10-21T03:14:45.446Z,13.79
2022-10-21T03:17:12.080Z,13.86
2022-10-21T03:19:38.653Z,13.85
2022-10-21T03:22:05.262Z,13.83
2022-10-21T03:24:31.852Z,13.79
2022-10-21T03:26:58.472Z,13.87
2022-10-21T03:29:25.061Z,13.65
2022-10-21T03:31:51.667Z,13.47
2022-10-21T03:34:18.402Z,13.47
2022-10-21T03:36:45.010Z,13.63
2022-10-21T03:39:12.769Z,13.77
2022-10-21T03:41:39.739Z,13.79
2022-10-21T03:44:06.281Z,13.83
2022-10-21T03:46:32.958Z,13.91
2022-10-21T03:49:04.447Z,13.84
2022-10-21T03:51:33.378Z,13.77
2022-10-21T03:53:59.940Z,13.82
2022-10-21T03:56:26.617Z,13.80
2022-10-21T03:58:57.757Z,13.84
2022-10-21T04:01:25.782Z,13.79
2022-10-21T04:03:52.495Z,13.95
2022-10-21T04:06:19.025Z,14.08
2022-10-21T04:08:45.589Z,14.22
2022-10-21T04:11:12.171Z,14.31
2022-10-21T04:13:38.850Z,14.33
2022-10-21T04:16:08.320Z,14.35
2022-10-21T04:18:34.970Z,14.40
2022-10-21T04:21:01.560Z,14.26
2022-10-21T04:23:28.108Z,14.16
2022-10-21T04:25:54.698Z,14.37
2022-10-21T04:28:21.482Z,14.20
2022-10-21T04:30:49.793Z,14.22
2022-10-21T04:33:16.734Z,14.24
2022-10-21T04:35:43.450Z,14.21
2022-10-21T04:38:10.168Z,14.16
2022-10-21T04:40:37.114Z,14.27
2022-10-21T04:43:04.178Z,14.37
2022-10-21T04:45:31.053Z,14.31
2022-10-21T04:47:57.888Z,14.17
2022-10-21T04:50:24.579Z,14.38
2022-10-21T04:52:51.694Z,14.18
2022-10-21T04:55:18.390Z,14.24
2022-10-21T04:57:45.063Z,14.15
2022-10-21T05:00:12.552Z,14.22
2022-10-21T05:02:39.495Z,14.27
2022-10-21T05:05:06.627Z,14.37
2022-10-21T05:07:33.350Z,14.04
2022-10-21T05:09:59.991Z,14.12
2022-10-21T05:12:26.585Z,14.24
2022-10-21T05:14:53.195Z,14.15
2022-10-21T05:17:19.728Z,14.20
2022-10-21T05:19:46.367Z,14.16
2022-10-21T05:22:12.930Z,14.07
2022-10-21T05:24:39.859Z,14.00
2022-10-21T05:27:06.419Z,13.92
2022-10-21T05:29:33.146Z,13.92
2022-10-21T05:31:59.943Z,13.96
2022-10-21T05:34:26.512Z,14.10
2022-10-21T05:36:53.089Z,14.15
2022-10-21T05:39:19.619Z,14.20
2022-10-21T05:41:47.994Z,14.11
2022-10-21T05:44:15.336Z,14.10
2022-10-21T05:46:41.882Z,14.12
2022-10-21T05:49:08.623Z,14.03
2022-10-21T05:51:35.303Z,13.98
2022-10-21T05:54:04.001Z,14.00
2022-10-21T05:56:30.855Z,13.90
2022-10-21T05:58:57.549Z,14.01
2022-10-21T06:01:24.134Z,13.89
2022-10-21T06:03:50.820Z,13.95
2022-10-21T06:06:17.656Z,13.80
2022-10-21T06:08:44.373Z,13.96
2022-10-21T06:11:14.452Z,13.57
2022-10-21T06:13:41.515Z,13.73
2022-10-21T06:16:09.660Z,13.81
2022-10-21T06:18:36.674Z,13.83
2022-10-21T06:21:04.008Z,13.73
2022-10-21T06:23:30.685Z,13.78
2022-10-21T06:26:00.246Z,13.65
2022-10-21T06:28:27.813Z,13.65
2022-10-21T06:30:54.498Z,13.63
2022-10-21T06:33:26.101Z,13.65
2022-10-21T06:35:54.705Z,13.57
2022-10-21T06:38:21.504Z,13.63
2022-10-21T06:40:48.839Z,13.62
2022-10-21T06:43:16.298Z,13.66
2022-10-21T06:45:42.912Z,13.62
2022-10-21T06:48:09.973Z,13.65
2022-10-21T06:50:40.053Z,13.68
2022-10-21T06:53:06.656Z,13.61
2022-10-21T06:55:33.295Z,13.63
2022-10-21T06:58:00.096Z,13.65
2022-10-21T07:00:27.137Z,13.67
2022-10-21T07:02:53.733Z,13.69
2022-10-21T07:05:20.325Z,13.53
2022-10-21T07:07:46.864Z,13.62
2022-10-21T07:10:13.469Z,13.63
2022-10-21T07:12:40.034Z,13.60
2022-10-21T07:15:06.999Z,13.73
2022-10-21T07:17:33.947Z,13.77
2022-10-21T07:20:00.575Z,13.80
2022-10-21T07:22:27.157Z,13.78
2022-10-21T07:24:53.774Z,13.91
2022-10-21T07:27:20.436Z,14.08
2022-10-21T07:29:47.030Z,14.25
2022-10-21T07:32:13.548Z,14.29
2022-10-21T07:34:40.176Z,14.46
2022-10-21T07:37:06.840Z,14.68
2022-10-21T07:39:34.987Z,14.63
2022-10-21T07:42:01.734Z,14.76
2022-10-21T07:44:28.397Z,14.86
2022-10-21T07:46:55.945Z,15.01
2022-10-21T07:49:23.450Z,15.08
2022-10-21T07:51:50.486Z,15.05
2022-10-21T07:54:18.488Z,15.23
2022-10-21T07:56:47.972Z,15.22
2022-10-21T07:59:14.779Z,15.23
2022-10-21T08:01:44.569Z,15.17
2022-10-21T08:04:14.167Z,15.34
2022-10-21T08:06:41.221Z,15.43
2022-10-21T08:09:07.934Z,15.47
2022-10-21T08:11:34.732Z,15.40
2022-10-21T08:14:03.142Z,15.58
2022-10-21T08:16:29.723Z,15.45
2022-10-21T08:18:59.053Z,15.57
2022-10-21T08:21:25.647Z,15.53
2022-10-21T08:23:52.331Z,15.58
2022-10-21T08:26:19.241Z,15.75
2022-10-21T08:28:46.002Z,15.66
2022-10-21T08:31:19.298Z,15.80
2022-10-21T08:33:46.543Z,15.83
2022-10-21T08:36:24.973Z,15.75
2022-10-21T08:38:52.513Z,15.84
2022-10-21T08:41:31.491Z,15.89
2022-10-21T08:44:29.378Z,15.98
2022-10-21T08:47:05.168Z,15.97
2022-10-21T08:50:04.575Z,16.09
2022-10-21T08:52:31.054Z,16.07
2022-10-21T08:55:05.121Z,16.22
2022-10-21T08:57:34.646Z,16.28
2022-10-21T09:00:01.412Z,16.27
2022-10-21T09:02:53.373Z,16.39
2022-10-21T09:06:02.857Z,16.27
2022-10-21T09:08:48.039Z,16.24
2022-10-21T09:11:29.862Z,16.12
2022-10-21T09:14:20.808Z,16.21
2022-10-21T09:17:14.923Z,16.34
2022-10-21T09:20:00.118Z,16.39
2022-10-21T09:22:35.625Z,16.45
2022-10-21T09:25:19.899Z,16.59
2022-10-21T09:28:02.602Z,16.49
2022-10-21T09:30:29.416Z,16.56
2022-10-21T09:33:00.275Z,16.43
2022-10-21T09:35:52.656Z,16.42
2022-10-21T09:38:31.134Z,16.41
2022-10-21T09:41:01.331Z,16.41
2022-10-21T09:43:27.976Z,16.26
2022-10-21T09:45:54.669Z,16.23
2022-10-21T09:48:50.232Z,16.37
2022-10-21T09:51:29.279Z,16.68
2022-10-21T09:53:58.741Z,16.66
2022-10-21T09:56:30.842Z,16.61
2022-10-21T09:59:11.490Z,16.76
2022-10-21T10:01:39.825Z,16.77
2022-10-21T10:04:12.321Z,16.81
2022-10-21T10:06:43.905Z,16.82
2022-10-21T10:09:16.575Z,16.93
2022-10-21T10:11:54.102Z,16.98
2022-10-21T10:14:25.494Z,17.02
2022-10-21T10:16:52.124Z,16.99
2022-10-21T10:19:22.291Z,17.01
2022-10-21T10:22:10.464Z,17.06
2022-10-21T10:24:40.440Z,17.10
2022-10-21T10:27:20.784Z,17.18
2022-10-21T10:29:56.254Z,17.05
2022-10-21T10:32:25.943Z,17.15
2022-10-21T10:34:55.738Z,17.22
2022-10-21T10:37:27.766Z,17.26
2022-10-21T10:39:58.969Z,17.24
2022-10-21T10:42:29.232Z,17.34
2022-10-21T10:45:00.493Z,17.36
2022-10-21T10:47:42.804Z,17.47
2022-10-21T10:50:46.935Z,17.47
2022-10-21T10:53:27.382Z,17.39
2022-10-21T10:56:22.939Z,17.49
2022-10-21T10:59:16.834Z,17.36
2022-10-21T11:01:55.846Z,17.23
2022-10-21T11:05:04.207Z,17.41
2022-10-21T11:07:35.946Z,17.40
2022-10-21T11:10:34.117Z,17.57
2022-10-21T11:13:02.262Z,17.53
2022-10-21T11:15:44.061Z,17.50
2022-10-21T11:18:24.556Z,17.66
2022-10-21T11:21:33.698Z,17.65
2022-10-21T11:24:19.215Z,17.64
2022-10-21T11:26:51.655Z,17.60
2022-10-21T11:29:35.403Z,17.52
2022-10-21T11:32:29.963Z,17.47
2022-10-21T11:35:02.934Z,17.54
2022-10-21T11:37:57.680Z,17.58
2022-10-21T11:40:46.480Z,17.55
2022-10-21T11:43:22.179Z,17.40
2022-10-21T11:45:54.930Z,17.58
2022-10-21T11:48:44.104Z,17.53
2022-10-21T11:51:37.828Z,17.61
2022-10-21T11:54:11.831Z,17.66
2022-10-21T11:57:05.892Z,17.63
2022-10-21T11:59:52.425Z,17.68
2022-10-21T12:02:27.603Z,17.42
2022-10-21T12:05:12.720Z,17.54
2022-10-21T12:07:48.275Z,17.59
2022-10-21T12:10:14.774Z,17.47
2022-10-21T12:12:46.354Z,17.51
2022-10-21T12:15:25.629Z,17.50
2022-10-21T12:17:53.428Z,17.45
2022-10-21T12:20:27.033Z,17.36
2022-10-21T12:23:05.253Z,17.41
2022-10-21T12:25:41.113Z,17.55
2022-10-21T12:28:16.444Z,17.37
2022-10-21T12:30:50.774Z,17.42
2022-10-21T12:33:28.482Z,17.40
2022-10-21T12:36:11.488Z,17.36
2022-10-21T12:38:49.089Z,17.41
2022-10-21T12:41:24.910Z,17.44
2022-10-21T12:44:03.726Z,17.45
2022-10-21T12:46:49.583Z,17.46
2022-10-21T12:49:33.856Z,17.43
2022-10-21T12:52:10.240Z,17.44
2022-10-21T12:54:44.166Z,17.68
2022-10-21T12:57:24.050Z,17.78
2022-10-21T12:59:50.760Z,17.79
2022-10-21T13:02:24.632Z,17.83
2022-10-21T13:04:53.969Z,17.88
2022-10-21T13:07:30.150Z,17.84
2022-10-21T13:09:59.812Z,17.76
2022-10-21T13:12:29.767Z,17.69
2022-10-21T13:14:58.852Z,17.84
2022-10-21T13:17:54.335Z,17.80
2022-10-21T13:20:20.880Z,17.86
2022-10-21T13:22:49.528Z,17.99
2022-10-21T13:25:16.063Z,17.98
2022-10-21T13:27:52.509Z,18.11
2022-10-21T13:30:31.342Z,18.11
2022-10-21T13:33:04.199Z,17.93
2022-10-21T13:35:53.434Z,18.16
2022-10-21T13:38:33.780Z,18.18
2022-10-21T13:41:04.378Z,18.26
2022-10-21T13:43:48.070Z,18.50
2022-10-21T13:46:18.423Z,18.37
2022-10-21T13:48:47.899Z,18.35
2022-10-21T13:51:18.939Z,18.35
2022-10-21T13:53:45.959Z,18.40
2022-10-21T13:56:25.323Z,18.52
2022-10-21T13:58:52.431Z,18.38
2022-10-21T14:01:22.488Z,18.40
2022-10-21T14:03:50.207Z,18.44
2022-10-21T14:06:37.124Z,18.36
2022-10-21T14:09:08.186Z,18.46
2022-10-21T14:11:43.400Z,18.45
2022-10-21T14:14:14.982Z,18.58
2022-10-21T14:16:47.722Z,18.51
2022-10-21T14:19:21.866Z,18.60
2022-10-21T14:21:52.477Z,18.63
2022-10-21T14:24:44.638Z,18.73
2022-10-21T14:27:34.865Z,18.73
2022-10-21T14:30:04.286Z,18.69
2022-10-21T14:32:31.296Z,18.77
2022-10-21T14:35:10.113Z,18.67
2022-10-21T14:37:46.342Z,18.75
2022-10-21T14:40:19.182Z,18.72
2022-10-21T14:42:49.750Z,18.57
2022-10-21T14:45:32.229Z,18.61
2022-10-21T14:48:32.308Z,18.74
2022-10-21T14:51:17.634Z,18.80
2022-10-21T14:53:52.554Z,18.72
2022-10-21T14:56:22.887Z,18.68
2022-10-21T14:58:57.207Z,18.63
2022-10-21T15:01:25.056Z,18.73
2022-10-21T15:03:57.486Z,18.77
2022-10-21T15:06:28.999Z,18.82
2022-10-21T15:09:15.746Z,18.71
2022-10-21T15:11:47.022Z,18.71
2022-10-21T15:14:13.682Z,18.70
2022-10-21T15:16:56.713Z,18.58
2022-10-21T15:19:34.110Z,18.55
2022-10-21T15:22:02.126Z,18.57
2022-10-21T15:24:43.009Z,18.43
2022-10-21T15:27:42.361Z,18.49
2022-10-21T15:30:21.677Z,18.57
2022-10-21T15:32:49.477Z,18.66
2022-10-21T15:35:18.791Z,18.83
2022-10-21T15:37:49.623Z,19.30
2022-10-21T15:40:18.475Z,19.98
2022-10-21T15:42:46.382Z,19.93
2022-10-21T15:45:16.489Z,19.82
2022-10-21T15:47:43.197Z,19.56
2022-10-21T15:50:14.831Z,19.38
2022-10-21T15:52:41.425Z,19.12
2022-10-21T15:55:10.339Z,19.06
2022-10-21T15:57:38.800Z,18.85
2022-10-21T16:00:22.702Z,18.88
2022-10-21T16:02:51.670Z,18.72
2022-10-21T16:05:18.687Z,18.54
2022-10-21T16:07:45.885Z,18.42
2022-10-21T16:10:29.451Z,18.40
2022-10-21T16:12:57.438Z,18.38
2022-10-21T16:15:24.668Z,18.24
2022-10-21T16:17:54.053Z,18.25
2022-10-21T16:20:23.589Z,18.08
2022-10-21T16:22:50.266Z,18.01
2022-10-21T16:25:17.152Z,17.99
2022-10-21T16:27:55.676Z,18.05
2022-10-21T16:30:26.199Z,17.94
2022-10-21T16:32:52.969Z,17.86
2022-10-21T16:35:20.697Z,17.84
2022-10-21T16:37:47.997Z,17.76
2022-10-21T16:40:22.424Z,17.60
2022-10-21T16:42:50.308Z,17.63
2022-10-21T16:45:18.511Z,17.55
2022-10-21T16:47:56.472Z,17.64
2022-10-21T16:50:27.206Z,17.52
2022-10-21T16:52:53.795Z,17.50
2022-10-21T16:55:23.233Z,17.46
2022-10-21T16:57:49.823Z,17.45
2022-10-21T17:00:17.941Z,17.38
2022-10-21T17:02:48.348Z,17.43
2022-10-21T17:05:15.465Z,17.36
2022-10-21T17:07:42.404Z,17.34
2022-10-21T17:10:09.932Z,17.32
2022-10-21T17:12:36.622Z,17.35
2022-10-21T17:15:03.751Z,17.32
2022-10-21T17:17:31.095Z,17.31
2022-10-21T17:19:57.752Z,17.29
2022-10-21T17:22:24.350Z,17.44
2022-10-21T17:24:51.051Z,17.41
2022-10-21T17:27:19.641Z,17.34
2022-10-21T17:29:46.831Z,17.28
2022-10-21T17:32:13.711Z,17.22
2022-10-21T17:34:41.145Z,17.14
2022-10-21T17:37:09.084Z,17.11
2022-10-21T17:39:35.775Z,17.19
2022-10-21T17:42:02.493Z,17.12
2022-10-21T17:44:29.216Z,17.11
2022-10-21T17:46:55.937Z,17.05
2022-10-21T17:49:24.797Z,17.01
2022-10-21T17:51:52.048Z,17.03
2022-10-21T17:54:22.850Z,17.00
2022-10-21T17:56:53.452Z,16.91
2022-10-21T17:59:22.783Z,16.89
2022-10-21T18:01:49.419Z,16.86
2022-10-21T18:04:16.366Z,16.76
2022-10-21T18:06:43.057Z,16.74
2022-10-21T18:09:09.713Z,16.75
2022-10-21T18:11:37.058Z,16.77
2022-10-21T18:14:04.278Z,16.68
2022-10-21T18:16:31.098Z,16.59
2022-10-21T18:19:03.208Z,16.58
2022-10-21T18:21:30.932Z,16.52
2022-10-21T18:23:57.957Z,16.50
2022-10-21T18:26:27.172Z,16.50
2022-10-21T18:28:59.860Z,16.39
2022-10-21T18:31:32.828Z,16.38
2022-10-21T18:34:01.482Z,16.35
2022-10-21T18:36:28.049Z,16.28
2022-10-21T18:38:54.896Z,16.24
2022-10-21T18:41:21.983Z,16.22
2022-10-21T18:44:15.133Z,16.23
2022-10-21T18:46:42.819Z,16.12
2022-10-21T18:49:13.970Z,16.07
2022-10-21T18:51:40.951Z,16.03
2022-10-21T18:54:07.825Z,15.98
2022-10-21T18:56:34.539Z,16.00
2022-10-21T18:59:01.259Z,15.96
2022-10-21T19:01:30.105Z,15.94
2022-10-21T19:03:56.691Z,15.73
2022-10-21T19:06:37.227Z,15.81
2022-10-21T19:09:19.181Z,15.79
2022-10-21T19:11:49.389Z,15.84
2022-10-21T19:14:16.546Z,15.91
2022-10-21T19:16:44.570Z,15.90
2022-10-21T19:19:11.321Z,15.81
2022-10-21T19:21:38.307Z,15.77
2022-10-21T19:24:05.369Z,15.71
2022-10-21T19:26:34.409Z,15.65
2022-10-21T19:29:10.867Z,15.71
2022-10-21T19:31:38.602Z,15.64
2022-10-21T19:34:06.500Z,15.61
2022-10-21T19:36:33.708Z,15.66
2022-10-21T19:39:00.176Z,15.62
2022-10-21T19:41:26.725Z,15.61
2022-10-21T19:43:58.395Z,15.60
2022-10-21T19:46:27.658Z,15.68
2022-10-21T19:48:54.405Z,15.68
2022-10-21T19:51:23.158Z,15.65
2022-10-21T19:53:51.781Z,15.69
2022-10-21T19:56:22.340Z,15.62
2022-10-21T19:58:54.067Z,15.61
2022-10-21T20:01:24.204Z,15.64
2022-10-21T20:03:52.621Z,15.60
2022-10-21T20:06:29.215Z,15.54
2022-10-21T20:09:01.707Z,15.51
2022-10-21T20:11:29.355Z,15.50
2022-10-21T20:13:56.601Z,15.48
2022-10-21T20:16:26.654Z,15.48
2022-10-21T20:18:55.163Z,15.44
2022-10-21T20:21:23.096Z,15.32
2022-10-21T20:23:50.139Z,15.23
2022-10-21T20:26:16.759Z,15.26
2022-10-21T20:28:43.455Z,15.23
2022-10-21T20:31:13.512Z,15.13
2022-10-21T20:33:43.255Z,15.00
2022-10-21T20:36:16.676Z,14.99
2022-10-21T20:38:44.128Z,14.91
2022-10-21T20:41:13.340Z,14.90
2022-10-21T20:43:41.901Z,14.78
2022-10-21T20:46:11.775Z,14.83
2022-10-21T20:48:48.066Z,14.77
2022-10-21T20:51:17.937Z,14.80
2022-10-21T20:53:50.005Z,14.77
2022-10-21T20:56:16.646Z,14.66
2022-10-21T20:58:43.392Z,14.65
2022-10-21T21:01:17.782Z,14.55
2022-10-21T21:03:45.583Z,14.49
2022-10-21T21:06:12.841Z,14.49
2022-10-21T21:08:48.667Z,14.50
2022-10-21T21:11:21.088Z,14.55
2022-10-21T21:13:48.089Z,14.48
2022-10-21T21:16:16.262Z,14.42
2022-10-21T21:18:49.331Z,14.47
2022-10-21T21:21:18.133Z,14.46
2022-10-21T21:23:45.864Z,14.42
2022-10-21T21:26:18.703Z,14.36
2022-10-21T21:28:46.028Z,14.43
2022-10-21T21:31:14.060Z,14.37
2022-10-21T21:33:42.434Z,14.29
2022-10-21T21:36:09.525Z,14.27
2022-10-21T21:38:36.120Z,14.20
2022-10-21T21:41:05.554Z,14.13
2022-10-21T21:43:36.640Z,14.08
2022-10-21T21:46:03.620Z,14.09
2022-10-21T21:48:34.117Z,14.16
2022-10-21T21:51:02.048Z,14.23
2022-10-21T21:53:28.661Z,14.14
2022-10-21T21:55:57.707Z,14.12
2022-10-21T21:58:27.505Z,13.88
2022-10-21T22:00:54.191Z,13.92
2022-10-21T22:03:21.654Z,13.85
2022-10-21T22:05:48.507Z,13.82
2022-10-21T22:08:15.082Z,13.76
2022-10-21T22:10:42.507Z,13.71
2022-10-21T22:13:09.248Z,13.78
2022-10-21T22:15:47.741Z,13.75
2022-10-21T22:18:14.862Z,13.73
2022-10-21T22:20:41.470Z,13.67
2022-10-21T22:23:08.046Z,13.78
2022-10-21T22:25:35.086Z,13.75
2022-10-21T22:28:01.695Z,13.55
2022-10-21T22:30:28.480Z,13.54
2022-10-21T22:32:55.036Z,13.52
2022-10-21T22:35:21.572Z,13.51
2022-10-21T22:37:48.140Z,13.53
2022-10-21T22:40:14.719Z,13.61
2022-10-21T22:42:41.335Z,13.66
2022-10-21T22:45:08.231Z,13.65
2022-10-21T22:47:34.881Z,13.57
2022-10-21T22:50:01.474Z,13.52
2022-10-21T22:52:28.056Z,13.51
2022-10-21T22:54:54.572Z,13.58
2022-10-21T22:57:21.135Z,13.59
2022-10-21T22:59:52.830Z,13.60
2022-10-21T23:02:19.988Z,13.66
2022-10-21T23:04:46.558Z,13.59
2022-10-21T23:07:13.109Z,13.58
2022-10-21T23:09:39.758Z,13.53
2022-10-21T23:12:06.390Z,13.36
2022-10-21T23:14:33.021Z,13.43
2022-10-21T23:16:59.598Z,13.44
2022-10-21T23:19:26.218Z,13.47
2022-10-21T23:21:52.894Z,13.44
2022-10-21T23:24:19.512Z,13.45
2022-10-21T23:26:46.143Z,13.42
2022-10-21T23:29:12.715Z,13.50
2022-10-21T23:31:39.435Z,13.39
2022-10-21T23:34:06.101Z,13.48
2022-10-21T23:36:34.522Z,13.35
2022-10-21T23:39:01.858Z,13.29
2022-10-21T23:41:28.786Z,13.30
2022-10-21T23:43:55.410Z,13.22
2022-10-21T23:46:22.498Z,13.06
2022-10-21T23:48:49.145Z,13.04
2022-10-21T23:51:15.691Z,13.12
2022-10-21T23:53:42.267Z,13.16
2022-10-21T23:56:09.002Z,13.20
2022-10-21T23:58:35.647Z,13.22
